createdAt,value
2022-09-10T00:01:57.215Z,3.85
2022-09-10T00:04:23.950Z,4.10
2022-09-10T00:06:50.705Z,3.95
2022-09-10T00:09:17.558Z,3.83
2022-09-10T00:11:45.662Z,3.45
2022-09-10T00:14:21.565Z,4.47
2022-09-10T00:16:49.395Z,4.25
2022-09-10T00:19:17.034Z,4.60
2022-09-10T00:21:44.720Z,6.93
2022-09-10T00:24:11.924Z,7.50
2022-09-10T00:26:39.699Z,5.53
2022-09-10T00:29:12.233Z,5.20
2022-09-10T00:31:39.882Z,4.93
2022-09-10T00:34:07.443Z,5.43
2022-09-10T00:36:37.299Z,4.05
2022-09-10T00:39:13.390Z,4.60
2022-09-10T00:41:42.078Z,4.60
2022-09-10T00:44:39.431Z,5.10
2022-09-10T00:47:12.718Z,5.10
2022-09-10T00:49:44.742Z,4.63
2022-09-10T00:52:12.431Z,5.28
2022-09-10T00:54:41.090Z,5.43
2022-09-10T00:57:12.403Z,5.45
2022-09-10T00:59:43.116Z,5.65
2022-09-10T01:02:09.874Z,5.50
2022-09-10T01:04:36.727Z,5.97
2022-09-10T01:07:03.553Z,7.85
2022-09-10T01:09:30.610Z,8.20
2022-09-10T01:12:04.482Z,5.70
2022-09-10T01:14:59.507Z,4.13
2022-09-10T01:17:49.635Z,3.85
2022-09-10T01:20:16.363Z,4.35
2022-09-10T01:23:07.929Z,4.38
2022-09-10T01:25:47.042Z,3.80
2022-09-10T01:28:22.562Z,3.78
2022-09-10T01:30:55.258Z,7.22
2022-09-10T01:33:48.293Z,8.75
2022-09-10T01:36:22.089Z,11.23
2022-09-10T01:38:50.790Z,8.93
2022-09-10T01:41:20.491Z,7.97
2022-09-10T01:43:49.748Z,7.05
2022-09-10T01:46:31.978Z,7.03
2022-09-10T01:49:13.861Z,6.30
2022-09-10T01:51:53.829Z,6.28
2022-09-10T01:55:03.034Z,7.60
2022-09-10T01:57:52.841Z,5.63
2022-09-10T02:00:21.981Z,4.68
2022-09-10T02:03:04.035Z,5.22
2022-09-10T02:05:35.182Z,4.60
2022-09-10T02:08:08.279Z,4.82
2022-09-10T02:10:51.730Z,4.40
2022-09-10T02:13:18.542Z,3.80
2022-09-10T02:15:45.398Z,3.47
2022-09-10T02:18:12.679Z,4.13
2022-09-10T02:20:39.627Z,3.78
2022-09-10T02:23:07.761Z,4.32
2022-09-10T02:25:37.338Z,4.25
2022-09-10T02:28:05.911Z,4.13
2022-09-10T02:30:32.703Z,5.35
2022-09-10T02:32:59.450Z,4.35
2022-09-10T02:35:26.183Z,4.43
2022-09-10T02:37:54.052Z,4.57
2022-09-10T02:40:20.795Z,3.85
2022-09-10T02:42:47.580Z,3.65
2022-09-10T02:45:14.797Z,4.03
2022-09-10T02:47:41.999Z,3.67
2022-09-10T02:50:09.957Z,3.70
2022-09-10T02:52:37.407Z,3.38
2022-09-10T02:55:04.409Z,5.10
2022-09-10T02:57:31.181Z,4.07
2022-09-10T02:59:57.907Z,4.35
2022-09-10T03:02:25.275Z,4.20
2022-09-10T03:04:51.977Z,4.20
2022-09-10T03:07:20.168Z,4.10
2022-09-10T03:09:47.316Z,4.75
2022-09-10T03:12:16.198Z,4.82
2022-09-10T03:14:43.374Z,4.80
2022-09-10T03:17:10.150Z,4.32
2022-09-10T03:19:37.011Z,4.85
2022-09-10T03:22:03.839Z,4.30
2022-09-10T03:24:30.563Z,5.03
2022-09-10T03:26:57.685Z,4.55
2022-09-10T03:29:24.413Z,5.20
2022-09-10T03:31:51.656Z,5.00
2022-09-10T03:34:18.810Z,5.28
2022-09-10T03:36:47.282Z,5.03
2022-09-10T03:39:15.278Z,4.53
2022-09-10T03:41:42.459Z,4.22
2022-09-10T03:44:09.183Z,4.07
2022-09-10T03:46:36.290Z,4.30
2022-09-10T03:49:03.290Z,4.22
2022-09-10T03:51:31.057Z,3.97
2022-09-10T03:53:59.652Z,3.92
2022-09-10T03:56:27.647Z,4.13
2022-09-10T03:58:54.347Z,3.90
2022-09-10T04:01:21.067Z,4.57
2022-09-10T04:03:47.970Z,5.00
2022-09-10T04:06:18.918Z,4.35
2022-09-10T04:08:50.116Z,3.70
2022-09-10T04:11:16.829Z,4.50
2022-09-10T04:13:43.792Z,4.68
2022-09-10T04:16:11.845Z,4.65
2022-09-10T04:18:38.677Z,4.78
2022-09-10T04:21:05.584Z,5.15
2022-09-10T04:23:33.178Z,7.03
2022-09-10T04:26:00.125Z,5.20
2022-09-10T04:28:26.847Z,4.93
2022-09-10T04:30:53.554Z,4.82
2022-09-10T04:33:20.259Z,4.90
2022-09-10T04:35:46.990Z,5.00
2022-09-10T04:38:13.675Z,4.63
2022-09-10T04:40:40.390Z,4.20
2022-09-10T04:43:07.264Z,3.05
2022-09-10T04:45:34.577Z,3.20
2022-09-10T04:48:06.173Z,2.90
2022-09-10T04:50:33.513Z,3.65
2022-09-10T04:53:00.375Z,6.63
2022-09-10T04:55:27.705Z,4.40
2022-09-10T04:57:54.518Z,4.85
2022-09-10T05:00:21.389Z,2.92
2022-09-10T05:02:48.790Z,2.63
2022-09-10T05:05:15.573Z,2.55
2022-09-10T05:07:42.265Z,3.53
2022-09-10T05:10:10.460Z,2.88
2022-09-10T05:12:38.454Z,2.75
2022-09-10T05:15:06.692Z,2.00
2022-09-10T05:17:34.099Z,2.60
2022-09-10T05:20:00.849Z,2.53
2022-09-10T05:22:34.948Z,2.28
2022-09-10T05:25:04.887Z,2.38
2022-09-10T05:27:31.804Z,2.35
2022-09-10T05:29:59.146Z,2.88
2022-09-10T05:32:25.862Z,2.60
2022-09-10T05:34:52.578Z,2.58
2022-09-10T05:37:19.259Z,2.80
2022-09-10T05:39:48.408Z,2.40
2022-09-10T05:42:15.258Z,2.70
2022-09-10T05:44:41.974Z,2.47
2022-09-10T05:47:08.931Z,2.30
2022-09-10T05:49:37.094Z,2.70
2022-09-10T05:52:04.046Z,2.45
2022-09-10T05:54:30.744Z,2.47
2022-09-10T05:56:58.600Z,2.70
2022-09-10T05:59:25.312Z,3.08
2022-09-10T06:01:52.138Z,3.15
2022-09-10T06:04:19.753Z,3.33
2022-09-10T06:06:47.780Z,2.70
2022-09-10T06:09:14.681Z,3.03
2022-09-10T06:11:41.819Z,2.50
2022-09-10T06:14:08.981Z,2.80
2022-09-10T06:16:35.725Z,2.65
2022-09-10T06:19:02.911Z,2.30
2022-09-10T06:21:29.809Z,2.80
2022-09-10T06:23:56.732Z,2.92
2022-09-10T06:26:23.720Z,2.75
2022-09-10T06:28:50.422Z,3.08
2022-09-10T06:31:18.028Z,2.53
2022-09-10T06:33:46.782Z,2.20
2022-09-10T06:36:13.748Z,2.90
2022-09-10T06:38:40.972Z,2.85
2022-09-10T06:41:11.981Z,2.88
2022-09-10T06:43:41.418Z,3.03
2022-09-10T06:46:40.611Z,2.85
2022-09-10T06:49:02.792Z,3.60
2022-09-10T06:51:30.150Z,2.90
2022-09-10T06:53:57.762Z,3.47
2022-09-10T06:56:24.597Z,4.20
2022-09-10T06:58:51.688Z,2.80
2022-09-10T07:01:20.509Z,2.50
2022-09-10T07:03:47.530Z,2.47
2022-09-10T07:06:16.883Z,2.45
2022-09-10T07:08:44.060Z,2.28
2022-09-10T07:11:15.806Z,2.05
2022-09-10T07:13:45.707Z,1.80
2022-09-10T07:16:12.435Z,2.00
2022-09-10T07:18:39.304Z,1.98
2022-09-10T07:21:14.264Z,2.55
2022-09-10T07:23:41.735Z,3.70
2022-09-10T07:26:11.713Z,2.50
2022-09-10T07:28:40.283Z,2.20
2022-09-10T07:31:17.730Z,2.17
2022-09-10T07:33:44.846Z,1.33
2022-09-10T07:36:12.549Z,1.50
2022-09-10T07:38:40.781Z,1.60
2022-09-10T07:41:11.235Z,1.40
2022-09-10T07:43:39.441Z,1.30
2022-09-10T07:46:07.304Z,1.30
2022-09-10T07:48:34.809Z,1.20
2022-09-10T07:51:07.089Z,1.30
2022-09-10T07:53:34.490Z,1.10
2022-09-10T07:56:03.966Z,1.50
2022-09-10T07:58:31.962Z,1.10
2022-09-10T08:00:59.878Z,1.50
2022-09-10T08:03:27.927Z,1.65
2022-09-10T08:05:55.418Z,1.10
2022-09-10T08:08:22.694Z,1.23
2022-09-10T08:10:49.735Z,1.35
2022-09-10T08:13:16.629Z,1.40
2022-09-10T08:15:47.184Z,1.40
2022-09-10T08:18:14.709Z,1.20
2022-09-10T08:20:41.428Z,1.05
2022-09-10T08:23:08.336Z,1.20
2022-09-10T08:25:35.664Z,1.00
2022-09-10T08:28:02.495Z,1.10
2022-09-10T08:30:31.112Z,1.10
2022-09-10T08:32:57.909Z,1.42
2022-09-10T08:35:24.814Z,0.90
2022-09-10T08:37:51.546Z,0.80
2022-09-10T08:40:18.463Z,0.93
2022-09-10T08:42:49.279Z,0.70
2022-09-10T08:45:36.705Z,0.90
2022-09-10T08:48:11.628Z,0.88
2022-09-10T08:50:44.539Z,1.10
2022-09-10T08:53:32.550Z,1.23
2022-09-10T08:56:05.289Z,0.90
2022-09-10T08:58:38.068Z,0.90
2022-09-10T09:01:06.884Z,1.10
2022-09-10T09:04:06.133Z,1.00
2022-09-10T09:06:45.398Z,1.02
2022-09-10T09:09:15.710Z,0.95
2022-09-10T09:12:02.319Z,1.10
2022-09-10T09:14:46.962Z,0.98
2022-09-10T09:17:35.632Z,1.25
2022-09-10T09:20:44.734Z,1.10
2022-09-10T09:23:27.058Z,1.10
2022-09-10T09:26:11.493Z,1.20
2022-09-10T09:28:50.785Z,1.17
2022-09-10T09:31:24.000Z,1.40
2022-09-10T09:33:55.307Z,1.30
2022-09-10T09:36:31.111Z,1.58
2022-09-10T09:38:57.861Z,1.30
2022-09-10T09:41:37.783Z,1.40
2022-09-10T09:44:16.430Z,1.23
2022-09-10T09:46:43.249Z,1.50
2022-09-10T09:49:16.862Z,1.30
2022-09-10T09:51:48.311Z,1.42
2022-09-10T09:57:20.525Z,1.70
2022-09-10T09:59:49.463Z,1.20
2022-09-10T10:02:18.707Z,1.33
2022-09-10T10:05:04.217Z,1.60
2022-09-10T10:07:33.726Z,1.80
2022-09-10T10:10:02.036Z,1.70
2022-09-10T10:12:34.133Z,1.38
2022-09-10T10:15:02.697Z,1.80
2022-09-10T10:17:34.691Z,1.80
2022-09-10T10:20:14.449Z,1.52
2022-09-10T10:22:45.927Z,1.45
2022-09-10T10:25:34.131Z,1.40
2022-09-10T10:28:01.129Z,1.60
2022-09-10T10:30:30.032Z,1.50
2022-09-10T10:32:59.174Z,2.05
2022-09-10T10:35:34.517Z,1.52
2022-09-10T10:38:27.646Z,1.63
2022-09-10T10:41:16.327Z,1.53
2022-09-10T10:43:49.032Z,1.67
2022-09-10T10:46:28.081Z,1.58
2022-09-10T10:49:25.868Z,1.00
2022-09-10T10:52:07.684Z,1.13
2022-09-10T10:54:57.358Z,1.30
2022-09-10T10:57:57.356Z,1.20
2022-09-10T11:00:24.901Z,1.20
2022-09-10T11:03:22.763Z,1.23
2022-09-10T11:05:55.952Z,1.20
2022-09-10T11:08:55.134Z,1.13
2022-09-10T11:11:31.661Z,1.27
2022-09-10T11:14:07.254Z,1.17
2022-09-10T11:16:46.716Z,1.05
2022-09-10T11:19:13.408Z,1.08
2022-09-10T11:21:51.820Z,1.05
2022-09-10T11:24:26.925Z,1.00
2022-09-10T11:26:54.126Z,1.30
2022-09-10T11:29:33.793Z,0.90
2022-09-10T11:32:17.226Z,0.90
2022-09-10T11:35:10.521Z,0.93
2022-09-10T11:37:56.172Z,0.95
2022-09-10T11:40:56.238Z,0.90
2022-09-10T11:43:29.169Z,0.80
2022-09-10T11:46:01.278Z,1.02
2022-09-10T11:48:37.404Z,0.88
2022-09-10T11:51:12.075Z,1.00
2022-09-10T11:53:39.302Z,2.15
2022-09-10T11:56:23.061Z,1.02
2022-09-10T12:01:47.069Z,0.93
2022-09-10T12:04:40.438Z,1.02
2022-09-10T12:07:21.061Z,1.23
2022-09-10T12:09:59.702Z,1.10
2022-09-10T12:12:33.498Z,1.30
2022-09-10T12:15:00.635Z,1.27
2022-09-10T12:17:32.449Z,1.38
2022-09-10T12:20:01.494Z,1.00
2022-09-10T12:22:35.675Z,1.40
2022-09-10T12:25:31.656Z,1.23
2022-09-10T12:28:03.742Z,1.10
2022-09-10T12:30:33.613Z,1.10
2022-09-10T12:33:07.545Z,1.10
2022-09-10T12:35:34.560Z,1.27
2022-09-10T12:38:42.061Z,1.23
2022-09-10T12:41:31.863Z,1.15
2022-09-10T12:44:04.577Z,1.35
2022-09-10T12:46:32.357Z,1.80
2022-09-10T12:49:02.153Z,1.20
2022-09-10T12:51:47.058Z,0.98
2022-09-10T12:54:39.592Z,1.15
2022-09-10T12:57:20.273Z,0.88
2022-09-10T13:00:16.410Z,1.20
2022-09-10T13:02:49.478Z,0.90
2022-09-10T13:05:29.309Z,1.35
2022-09-10T13:08:16.126Z,1.00
2022-09-10T13:10:46.889Z,1.02
2022-09-10T13:13:24.581Z,1.27
2022-09-10T13:15:53.073Z,0.95
2022-09-10T13:18:35.807Z,0.88
2022-09-10T13:21:24.393Z,0.75
2022-09-10T13:23:56.187Z,0.70
2022-09-10T13:26:29.128Z,0.40
2022-09-10T13:28:56.890Z,0.60
2022-09-10T13:31:36.076Z,0.65
2022-09-10T13:34:15.092Z,0.60
2022-09-10T13:36:48.135Z,0.50
2022-09-10T13:39:38.230Z,0.57
2022-09-10T13:42:10.988Z,0.80
2022-09-10T13:45:04.381Z,0.75
2022-09-10T13:47:46.146Z,0.60
2022-09-10T13:50:20.899Z,0.50
2022-09-10T13:52:51.977Z,0.88
2022-09-10T13:55:27.794Z,0.80
2022-09-10T13:57:58.813Z,0.68
2022-09-10T14:00:38.943Z,0.73
2022-09-10T14:03:16.446Z,0.68
2022-09-10T14:05:46.906Z,0.50
2022-09-10T14:08:24.467Z,0.77
2022-09-10T14:10:56.793Z,0.80
2022-09-10T14:13:29.497Z,0.73
2022-09-10T14:15:59.324Z,1.00
2022-09-10T14:18:33.139Z,0.70
2022-09-10T14:21:00.410Z,0.90
2022-09-10T14:23:29.552Z,1.05
2022-09-10T14:26:23.591Z,0.77
2022-09-10T14:28:51.814Z,0.90
2022-09-10T14:31:20.963Z,0.82
2022-09-10T14:33:47.866Z,0.82
2022-09-10T14:36:29.987Z,1.10
2022-09-10T14:38:59.666Z,1.00
2022-09-10T14:41:29.501Z,0.95
2022-09-10T14:44:27.402Z,0.88
2022-09-10T14:47:09.315Z,1.00
2022-09-10T14:49:39.153Z,1.10
2022-09-10T14:52:06.417Z,0.90
2022-09-10T14:54:34.684Z,1.10
2022-09-10T14:57:03.802Z,1.27
2022-09-10T14:59:36.255Z,1.25
2022-09-10T15:02:13.733Z,1.00
2022-09-10T15:04:40.552Z,0.80
2022-09-10T15:07:10.694Z,1.20
2022-09-10T15:09:37.487Z,0.90
2022-09-10T15:12:13.154Z,0.90
2022-09-10T15:14:39.886Z,0.88
2022-09-10T15:17:06.767Z,1.08
2022-09-10T15:19:33.587Z,1.10
2022-09-10T15:22:00.282Z,0.85
2022-09-10T15:24:28.256Z,1.05
2022-09-10T15:26:56.377Z,0.63
2022-09-10T15:29:23.772Z,0.60
2022-09-10T15:31:51.362Z,0.80
2022-09-10T15:34:19.326Z,0.80
2022-09-10T15:36:47.025Z,0.90
2022-09-10T15:39:13.967Z,1.00
2022-09-10T15:41:42.903Z,0.98
2022-09-10T15:44:10.079Z,1.00
2022-09-10T15:46:40.986Z,1.05
2022-09-10T15:49:07.982Z,0.90
2022-09-10T15:51:34.790Z,0.93
2022-09-10T15:54:04.940Z,0.90
2022-09-10T15:56:32.585Z,0.73
2022-09-10T15:58:59.424Z,0.70
2022-09-10T16:01:28.782Z,0.45
2022-09-10T16:03:57.972Z,0.70
2022-09-10T16:06:27.678Z,0.70
2022-09-10T16:08:57.143Z,0.90
2022-09-10T16:11:25.430Z,0.55
2022-09-10T16:13:52.501Z,0.90
2022-09-10T16:16:25.972Z,0.80
2022-09-10T16:21:23.063Z,0.70
2022-09-10T16:23:51.789Z,1.00
2022-09-10T16:26:21.639Z,0.98
2022-09-10T16:28:53.682Z,0.73
2022-09-10T16:31:22.568Z,0.70
2022-09-10T16:33:54.526Z,0.90
2022-09-10T16:36:23.364Z,0.90
2022-09-10T16:38:55.518Z,0.77
2022-09-10T16:41:24.626Z,0.93
2022-09-10T16:43:52.601Z,0.90
2022-09-10T16:46:19.454Z,1.00
2022-09-10T16:48:46.573Z,0.80
2022-09-10T16:51:19.568Z,1.27
2022-09-10T16:53:54.120Z,0.88
2022-09-10T16:56:21.047Z,0.93
2022-09-10T16:58:48.657Z,0.82
2022-09-10T17:01:16.278Z,1.65
2022-09-10T17:03:45.730Z,0.98
2022-09-10T17:06:18.278Z,1.00
2022-09-10T17:08:45.358Z,1.00
2022-09-10T17:11:12.970Z,0.90
2022-09-10T17:13:39.836Z,0.70
2022-09-10T17:16:22.982Z,0.80
2022-09-10T17:19:01.846Z,0.88
2022-09-10T17:21:31.496Z,1.00
2022-09-10T17:23:59.155Z,1.02
2022-09-10T17:26:27.015Z,0.68
2022-09-10T17:28:59.175Z,0.82
2022-09-10T17:31:30.192Z,0.68
2022-09-10T17:33:58.143Z,0.80
2022-09-10T17:36:25.876Z,0.70
2022-09-10T17:38:58.997Z,0.85
2022-09-10T17:41:27.481Z,0.60
2022-09-10T17:43:55.540Z,0.90
2022-09-10T17:46:24.051Z,0.70
2022-09-10T17:48:52.366Z,0.70
2022-09-10T17:51:24.691Z,0.82
2022-09-10T17:53:53.029Z,1.08
2022-09-10T17:56:20.201Z,1.30
2022-09-10T17:58:48.058Z,1.55
2022-09-10T18:01:23.826Z,1.02
2022-09-10T18:03:52.395Z,0.90
2022-09-10T18:06:21.311Z,0.90
2022-09-10T18:08:48.361Z,1.02
2022-09-10T18:11:20.093Z,1.30
2022-09-10T18:13:52.993Z,1.20
2022-09-10T18:16:24.272Z,1.10
2022-09-10T18:18:53.922Z,0.98
2022-09-10T18:21:25.150Z,0.98
2022-09-10T18:24:12.258Z,1.00
2022-09-10T18:26:42.623Z,1.23
2022-09-10T18:29:18.924Z,1.10
2022-09-10T18:31:48.876Z,1.20
2022-09-10T18:34:22.972Z,1.52
2022-09-10T18:36:55.310Z,1.30
2022-09-10T18:39:23.369Z,0.93
2022-09-10T18:41:50.728Z,0.80
2022-09-10T18:44:21.696Z,0.80
2022-09-10T18:46:50.501Z,0.70
2022-09-10T18:49:21.411Z,0.63
2022-09-10T18:51:49.273Z,0.60
2022-09-10T18:54:17.107Z,0.82
2022-09-10T18:56:44.978Z,1.00
2022-09-10T18:59:15.017Z,0.95
2022-09-10T19:01:43.644Z,0.90
2022-09-10T19:04:12.918Z,0.80
2022-09-10T19:06:42.346Z,0.88
2022-09-10T19:09:11.791Z,0.70
2022-09-10T19:11:40.991Z,0.93
2022-09-10T19:14:21.823Z,0.90
2022-09-10T19:16:50.234Z,0.98
2022-09-10T19:19:22.163Z,0.80
2022-09-10T19:21:52.050Z,0.73
2022-09-10T19:24:32.767Z,0.75
2022-09-10T19:27:04.885Z,0.60
2022-09-10T19:29:31.670Z,0.63
2022-09-10T19:31:58.514Z,0.80
2022-09-10T19:34:26.844Z,0.90
2022-09-10T19:36:53.730Z,1.10
2022-09-10T19:39:20.888Z,0.75
2022-09-10T19:41:48.828Z,0.85
2022-09-10T19:44:16.737Z,1.25
2022-09-10T19:46:44.821Z,1.23
2022-09-10T19:49:12.474Z,1.10
2022-09-10T19:51:40.543Z,0.90
2022-09-10T19:54:07.509Z,0.80
2022-09-10T19:56:37.465Z,0.90
2022-09-10T19:59:08.604Z,1.10
2022-09-10T20:01:44.869Z,1.10
2022-09-10T20:04:12.601Z,1.10
2022-09-10T20:06:40.054Z,1.40
2022-09-10T20:09:08.586Z,1.17
2022-09-10T20:11:35.884Z,1.20
2022-09-10T20:14:09.926Z,1.40
2022-09-10T20:16:38.953Z,1.30
2022-09-10T20:19:06.608Z,1.30
2022-09-10T20:21:34.407Z,1.40
2022-09-10T20:24:01.113Z,1.52
2022-09-10T20:26:33.557Z,1.92
2022-09-10T20:29:25.402Z,1.50
2022-09-10T20:31:52.668Z,1.42
2022-09-10T20:34:21.538Z,1.20
2022-09-10T20:36:53.248Z,1.13
2022-09-10T20:39:24.022Z,1.30
2022-09-10T20:41:50.827Z,1.13
2022-09-10T20:44:18.282Z,1.30
2022-09-10T20:46:45.329Z,1.10
2022-09-10T20:49:13.774Z,1.25
2022-09-10T20:51:41.478Z,1.30
2022-09-10T20:54:13.269Z,1.27
2022-09-10T20:56:40.615Z,1.23
2022-09-10T20:59:07.481Z,1.20
2022-09-10T21:01:34.516Z,1.17
2022-09-10T21:04:04.025Z,1.40
2022-09-10T21:06:33.070Z,1.17
2022-09-10T21:09:00.761Z,1.15
2022-09-10T21:11:29.573Z,1.10
2022-09-10T21:13:58.793Z,1.42
2022-09-10T21:16:28.217Z,1.35
2022-09-10T21:19:04.181Z,1.30
2022-09-10T21:21:33.960Z,1.42
2022-09-10T21:24:03.419Z,1.48
2022-09-10T21:26:33.372Z,1.35
2022-09-10T21:29:04.623Z,1.35
2022-09-10T21:31:32.073Z,1.42
2022-09-10T21:34:03.092Z,1.63
2022-09-10T21:36:31.965Z,1.50
2022-09-10T21:39:01.183Z,1.35
2022-09-10T21:41:39.874Z,1.52
2022-09-10T21:44:19.715Z,1.50
2022-09-10T21:46:47.453Z,1.60
2022-09-10T21:49:14.761Z,1.50
2022-09-10T21:51:42.229Z,1.55
2022-09-10T21:54:14.667Z,1.42
2022-09-10T21:56:41.387Z,1.40
2022-09-10T21:59:12.046Z,1.40
2022-09-10T22:01:40.692Z,1.50
2022-09-10T22:04:07.559Z,1.50
2022-09-10T22:06:35.282Z,1.50
2022-09-10T22:09:14.231Z,1.30
2022-09-10T22:11:45.761Z,1.40
2022-09-10T22:14:24.553Z,1.40
2022-09-10T22:16:52.170Z,1.50
2022-09-10T22:19:22.535Z,1.92
2022-09-10T22:21:50.078Z,1.63
2022-09-10T22:24:19.797Z,1.27
2022-09-10T22:26:47.371Z,1.50
2022-09-10T22:29:17.500Z,1.40
2022-09-10T22:31:44.461Z,1.30
2022-09-10T22:34:15.810Z,1.45
2022-09-10T22:36:44.342Z,1.70
2022-09-10T22:39:14.764Z,1.63
2022-09-10T22:41:42.281Z,1.67
2022-09-10T22:44:09.098Z,1.50
2022-09-10T22:46:36.686Z,1.70
2022-09-10T22:49:04.615Z,1.40
2022-09-10T22:51:35.205Z,1.58
2022-09-10T22:54:03.905Z,1.65
2022-09-10T22:56:31.006Z,1.90
2022-09-10T22:58:59.186Z,1.70
2022-09-10T23:01:31.785Z,1.60
2022-09-10T23:03:59.858Z,1.73
2022-09-10T23:06:29.307Z,2.00
2022-09-10T23:09:01.428Z,2.05
2022-09-10T23:11:30.589Z,1.90
2022-09-10T23:14:04.193Z,1.70
2022-09-10T23:16:39.219Z,1.73
2022-09-10T23:19:09.607Z,1.90
2022-09-10T23:21:39.427Z,1.80
2022-09-10T23:24:09.331Z,1.42
2022-09-10T23:26:36.443Z,1.65
2022-09-10T23:29:04.706Z,1.58
2022-09-10T23:31:33.573Z,1.40
2022-09-10T23:34:05.874Z,1.73
2022-09-10T23:36:35.017Z,1.55
2022-09-10T23:39:04.699Z,1.80
2022-09-10T23:41:31.451Z,1.85
2022-09-10T23:43:58.335Z,1.88
2022-09-10T23:46:25.454Z,1.70
2022-09-10T23:48:52.496Z,1.70
2022-09-10T23:51:20.862Z,2.00
2022-09-10T23:53:48.744Z,2.00
2022-09-10T23:56:17.431Z,2.70
2022-09-10T23:58:44.543Z,2.10
